Akunia, Virginia
Current Conditions -  °F | °C
As of 3:35 PM on Thursday 20 Nov 2014 (Local Time) from KFVX Reporting Station
Clear Clear  
Wind Chill: 58°   Ceiling: Unl
Heat Index: 58°   Visibility: 10mi
Dew Point: 20°   Wind: 10mph
Humidity: 23%   Direction: 230°SW
Pressure: 29.93"   Gusts: 16mph
Location:  37.6681°N, 78.4131°W
Report Text: KFVX 202035Z AUTO 23009G14KT 210V270 10SM CLR 15/M06 A2993 RMK AO2 T01461065
Loading
Personal Weather Stations






























Interactive Weather Map New forecast layout! Learn more

10-Day Weather Forecast

Advertisements
Track Severe Weather on mobile